Weather at Minneapolis-St Paul International/Wold-Chamberlain Airport

Public forecast

Using degrees Fahrenheit for public forecast. Weather courtesy of forecast.io.

Current aviation weather report (METAR) for Minneapolis-St Paul International/Wold-Chamberlain Airport

Retrieved 2020/10/30 05:53 UTC (1 hour ago):

KMSP 300553Z 00000KT 10SM BKN090 OVC110 M01/M06 A3018 RMK AO2 SLP230 T10061056 10006 21006 400331006 53010

Aviation forecast (TAF) for Minneapolis-St Paul International/Wold-Chamberlain Airport

Retrieved 2020/10/30 06:22 UTC (31 minutes ago):

TAF KMSP 300520Z 3006/3112 VRB03KT P6SM SCT060 BKN120 TEMPO 3006/3010 6SM -SHSN BR BKN040 FM301000 12003KT P6SM BKN040 FM301800 14005KT P6SM SCT070 SCT250